Time;durP1;ratioP1;P1;durP2;ratioP2;P2;SDS_P1;SDS_P2;PMS_P1;PMS_P2;Temp;Humidity;BMP_temperature;BMP_pressure;BME280_temperature;BME280_humidity;BME280_pressure;Samples;Min_cycle;Max_cycle;Signal;HPM_P1;HPM_P2
2020/12/27 00:02:02;;;;;;;3.47;2.80;;;;;;;-144.99;100.00;52501.09;5111727;28;21286;-76
2020/12/27 00:04:28;;;;;;;6.93;2.50;;;;;;;-144.99;100.00;52537.78;5116604;27;21176;-76
2020/12/27 00:06:55;;;;;;;5.57;3.20;;;;;;;-144.99;100.00;52558.16;5108733;28;20732;-76
2020/12/27 00:09:21;;;;;;;4.17;3.40;;;;;;;-144.99;100.00;52458.28;5110041;27;20613;-76
2020/12/27 00:11:47;;;;;;;4.57;2.77;;;;;;;-144.99;100.00;52505.16;5129560;27;20634;-75
2020/12/27 00:14:14;;;;;;;4.83;3.43;;;;;;;-144.99;100.00;52513.31;5116014;27;20687;-75
2020/12/27 00:16:40;;;;;;;3.83;2.33;;;;;;;-144.99;100.00;52490.91;5129514;27;20641;-77
2020/12/27 00:19:06;;;;;;;7.53;3.67;;;;;;;-144.99;100.00;52517.41;5126477;27;20743;-76
2020/12/27 00:21:32;;;;;;;7.10;3.17;;;;;;;-144.99;100.00;52550.00;5109540;28;20728;-74
2020/12/27 00:23:58;;;;;;;3.37;2.57;;;;;;;-144.99;100.00;52484.78;5109311;27;20621;-75
2020/12/27 00:26:24;;;;;;;5.73;3.00;;;;;;;-144.99;100.00;52484.78;5119224;27;21049;-76
2020/12/27 00:28:51;;;;;;;3.60;2.80;;;;;;;-144.99;100.00;52531.66;5129259;27;20719;-75
2020/12/27 00:31:18;;;;;;;6.13;2.47;;;;;;;-144.99;100.00;52507.19;5123375;27;20671;-74
2020/12/27 00:33:44;;;;;;;3.48;2.05;;;;;;;-144.99;100.00;52541.84;4764991;27;10001111;-75
2020/12/27 00:36:10;;;;;;;4.87;2.27;;;;;;;-144.99;100.00;52501.09;5116575;27;20731;-76
2020/12/27 00:38:36;;;;;;;3.67;2.60;;;;;;;-144.99;100.00;52545.94;5108446;28;20633;-74
2020/12/27 00:41:02;;;;;;;3.50;2.60;;;;;;;-144.99;100.00;52505.16;5113687;27;21271;-73
2020/12/27 00:43:29;;;;;;;4.03;2.63;;;;;;;-144.99;100.00;52517.41;5107588;28;20645;-74
2020/12/27 00:45:55;;;;;;;3.30;2.40;;;;;;;-144.99;100.00;52488.84;5109768;28;20652;-75
2020/12/27 00:48:22;;;;;;;3.67;1.93;;;;;;;-144.99;100.00;52515.34;5108768;28;20996;-75
2020/12/27 00:50:49;;;;;;;6.27;2.50;;;;;;;-144.99;100.00;52547.97;5111567;28;20613;-76
2020/12/27 00:53:15;;;;;;;4.73;2.70;;;;;;;-144.99;100.00;52497.00;5110784;28;20672;-75
2020/12/27 00:55:43;;;;;;;5.03;2.23;;;;;;;-144.99;100.00;52509.25;5110568;28;20645;-75
2020/12/27 00:58:09;;;;;;;3.73;2.77;;;;;;;-144.99;100.00;52537.78;5123969;27;20977;-77
2020/12/27 01:00:35;;;;;;;6.40;2.50;;;;;;;-144.99;100.00;52521.47;5110212;28;20704;-74
2020/12/27 01:03:01;;;;;;;4.87;3.17;;;;;;;-144.99;100.00;52529.63;5110184;28;20918;-74
2020/12/27 01:05:28;;;;;;;3.63;2.47;;;;;;;-144.99;100.00;52529.63;5117029;27;21085;-75
2020/12/27 01:07:55;;;;;;;4.27;2.60;;;;;;;-144.99;100.00;52505.16;5110758;28;20855;-73
2020/12/27 01:10:21;;;;;;;4.23;3.13;;;;;;;-144.99;100.00;52488.84;5110609;28;20712;-72
2020/12/27 01:12:47;;;;;;;4.97;3.20;;;;;;;-144.99;100.00;52513.31;5120311;27;20759;-73
2020/12/27 01:15:14;;;;;;;2.87;2.33;;;;;;;-144.99;100.00;52545.94;5124952;27;20676;-76
2020/12/27 01:17:40;;;;;;;3.70;2.87;;;;;;;-144.99;100.00;52529.63;5111335;28;20765;-74
2020/12/27 01:20:06;;;;;;;5.20;2.80;;;;;;;-144.99;100.00;52527.59;5110299;28;21064;-73
2020/12/27 01:22:34;;;;;;;4.27;2.43;;;;;;;-144.99;100.00;52521.47;5110223;28;21248;-73
2020/12/27 01:25:00;;;;;;;3.63;2.70;;;;;;;-144.99;100.00;52484.78;5110310;28;20632;-73
2020/12/27 01:27:26;;;;;;;4.27;3.13;;;;;;;-144.99;100.00;52517.41;5110334;28;21063;-75
2020/12/27 01:29:53;;;;;;;7.10;2.30;;;;;;;-144.99;100.00;52521.47;5114656;28;21197;-74
2020/12/27 01:32:19;;;;;;;3.73;2.33;;;;;;;-144.99;100.00;52478.66;5118802;27;20767;-75
2020/12/27 01:34:45;;;;;;;3.47;2.63;;;;;;;-144.99;100.00;52545.94;5109895;28;20651;-75
2020/12/27 01:37:11;;;;;;;5.20;2.80;;;;;;;-144.99;100.00;52488.84;5113132;27;21059;-75
2020/12/27 01:39:38;;;;;;;3.03;2.07;;;;;;;-144.99;100.00;52509.25;5113201;27;21206;-75
2020/12/27 01:42:04;;;;;;;3.97;2.37;;;;;;;-144.99;100.00;52545.94;5117266;27;20667;-75
2020/12/27 01:44:30;;;;;;;3.67;2.60;;;;;;;-144.99;100.00;52545.94;5112377;28;20712;-76
2020/12/27 01:46:56;;;;;;;4.60;2.90;;;;;;;-144.99;100.00;52497.00;5118515;28;20653;-76
2020/12/27 01:49:23;;;;;;;9.17;3.37;;;;;;;-144.99;100.00;52539.81;5117257;28;20633;-75
2020/12/27 01:51:49;;;;;;;2.80;2.60;;;;;;;-144.99;100.00;52537.78;5117075;28;20703;-75
2020/12/27 01:54:15;;;;;;;2.43;1.80;;;;;;;-144.99;100.00;52505.16;5115906;28;20687;-75
2020/12/27 01:56:43;;;;;;;3.47;2.47;;;;;;;-144.99;100.00;52513.31;5119488;28;20628;-76
2020/12/27 01:59:13;;;;;;;3.70;2.10;;;;;;;-144.99;100.00;52472.56;5115821;28;20660;-74
2020/12/27 02:01:40;;;;;;;1.70;1.60;;;;;;;-144.99;100.00;52488.84;5109723;28;20755;-75
2020/12/27 02:04:06;;;;;;;5.57;2.77;;;;;;;-144.99;100.00;52525.56;5114332;28;20667;-75
2020/12/27 02:06:32;;;;;;;4.23;2.53;;;;;;;-144.99;100.00;52509.25;5127693;27;21161;-75
2020/12/27 02:08:59;;;;;;;3.90;2.50;;;;;;;-144.99;99.63;52517.41;5111364;27;20649;-76
2020/12/27 02:11:26;;;;;;;2.83;1.87;;;;;;;-144.99;99.20;52517.41;5109572;28;20653;-76
2020/12/27 02:13:56;;;;;;;4.10;2.30;;;;;;;-144.99;98.86;52488.84;5109325;28;20703;-75
2020/12/27 02:16:23;;;;;;;5.47;2.60;;;;;;;-144.99;98.62;52521.47;5110143;28;21258;-75
2020/12/27 02:18:50;;;;;;;5.13;1.93;;;;;;;-144.99;98.16;52511.28;5109011;28;21065;-75
2020/12/27 02:21:17;;;;;;;2.47;1.53;;;;;;;-144.99;97.96;52472.56;5109586;28;21178;-75
2020/12/27 02:23:43;;;;;;;3.13;2.07;;;;;;;-144.99;97.23;52529.63;5116645;28;20644;-74
2020/12/27 02:26:10;;;;;;;2.57;2.03;;;;;;;-144.99;96.83;52482.75;5129083;28;21201;-74
2020/12/27 02:28:36;;;;;;;3.87;1.70;;;;;;;-144.99;97.08;52509.25;5129744;28;20636;-74
2020/12/27 02:31:03;;;;;;;2.80;1.77;;;;;;;-144.99;96.11;52488.84;5129809;28;20655;-74
2020/12/27 02:33:29;;;;;;;4.37;2.17;;;;;;;-144.99;95.86;52509.25;5130458;28;20747;-74
2020/12/27 02:35:55;;;;;;;1.73;1.23;;;;;;;-144.99;95.90;52517.41;5129773;28;20996;-74
2020/12/27 02:38:22;;;;;;;3.20;1.77;;;;;;;-144.99;95.40;52523.50;5122927;28;20728;-76
2020/12/27 02:40:48;;;;;;;2.90;1.70;;;;;;;-144.99;95.53;52517.41;5119394;28;20663;-75
2020/12/27 02:43:16;;;;;;;2.73;1.40;;;;;;;-144.99;95.70;52501.09;5109136;28;20687;-76
2020/12/27 02:45:43;;;;;;;3.60;1.73;;;;;;;-144.99;96.12;52541.84;5109498;28;20657;-74
2020/12/27 02:48:09;;;;;;;2.17;1.50;;;;;;;-144.99;96.27;52521.47;5109190;28;20720;-74
2020/12/27 02:50:36;;;;;;;2.73;1.73;;;;;;;-144.99;96.01;52501.09;5108818;28;20656;-73
2020/12/27 02:53:04;;;;;;;6.27;1.70;;;;;;;-144.99;96.18;52503.13;5111414;28;20767;-73
2020/12/27 02:55:30;;;;;;;1.97;1.47;;;;;;;-144.99;95.71;52519.44;5112530;28;20716;-74
2020/12/27 02:57:56;;;;;;;2.10;1.30;;;;;;;-144.99;95.83;52525.56;5112374;28;20671;-76
2020/12/27 03:00:24;;;;;;;3.27;1.80;;;;;;;-144.99;96.17;52517.41;5112719;28;20774;-76
2020/12/27 03:02:50;;;;;;;3.97;1.80;;;;;;;-144.99;96.01;52494.97;5112346;28;20664;-75
2020/12/27 03:05:16;;;;;;;1.40;1.03;;;;;;;-144.99;95.92;52545.94;5126349;27;20652;-75
2020/12/27 03:07:42;;;;;;;1.83;1.13;;;;;;;-144.99;96.09;52525.56;5123000;27;21223;-75
2020/12/27 03:10:08;;;;;;;3.90;2.77;;;;;;;-144.99;96.00;52499.06;5112960;28;20656;-75
2020/12/27 03:12:34;;;;;;;1.70;1.23;;;;;;;-144.99;96.05;52488.84;5121099;27;20652;-73
2020/12/27 03:15:00;;;;;;;2.27;1.40;;;;;;;-144.99;96.11;52533.69;5117158;27;20723;-73
2020/12/27 03:17:27;;;;;;;1.77;1.00;;;;;;;-144.99;95.61;52484.78;5111866;28;20683;-73
2020/12/27 03:19:53;;;;;;;1.83;1.50;;;;;;;-144.99;95.67;52488.84;5112041;28;20803;-74
2020/12/27 03:22:19;;;;;;;1.97;1.30;;;;;;;-144.99;95.70;52527.59;5112529;28;20645;-74
2020/12/27 03:24:45;;;;;;;1.60;1.30;;;;;;;-144.99;95.84;52517.41;5112448;28;20737;-74
2020/12/27 03:27:12;;;;;;;1.43;0.90;;;;;;;-144.99;95.80;52497.00;5112045;28;20727;-73
2020/12/27 03:29:38;;;;;;;2.73;1.70;;;;;;;-144.99;95.88;52554.09;5111504;28;20719;-73
2020/12/27 03:32:04;;;;;;;2.37;1.63;;;;;;;-144.99;95.89;52517.41;5111857;28;20744;-73
2020/12/27 03:34:31;;;;;;;1.77;1.20;;;;;;;-144.99;95.78;52472.56;5111981;28;21286;-73
2020/12/27 03:36:57;;;;;;;2.00;1.37;;;;;;;-144.99;95.80;52505.16;5112326;28;20731;-74
2020/12/27 03:39:23;;;;;;;2.40;1.20;;;;;;;-144.99;95.73;52521.47;5115352;27;20717;-75
2020/12/27 03:41:49;;;;;;;1.43;1.30;;;;;;;-144.99;95.70;52521.47;5122011;27;20726;-74
2020/12/27 03:44:15;;;;;;;4.80;1.80;;;;;;;-144.99;95.63;52486.81;5112074;28;20674;-74
2020/12/27 03:46:41;;;;;;;2.57;1.43;;;;;;;-144.99;94.91;52484.78;5112721;28;20973;-75
2020/12/27 03:49:07;;;;;;;1.70;1.00;;;;;;;-144.99;94.88;52527.59;5125136;27;20661;-75
2020/12/27 03:51:34;;;;;;;2.53;1.00;;;;;;;-144.99;94.41;52521.47;5112350;28;20782;-75
2020/12/27 03:54:00;;;;;;;1.73;1.17;;;;;;;-144.99;94.21;52566.31;5111597;28;21261;-76
2020/12/27 03:56:27;;;;;;;1.30;1.20;;;;;;;-144.99;93.71;52513.31;5112116;28;20743;-76
2020/12/27 03:58:53;;;;;;;1.43;1.10;;;;;;;-144.99;93.30;52525.56;5111039;28;21210;-74
2020/12/27 04:01:19;;;;;;;2.83;2.63;;;;;;;-144.99;92.60;52492.94;5112458;28;21043;-75
2020/12/27 04:03:45;;;;;;;3.73;1.10;;;;;;;-144.99;92.28;52511.28;5110904;27;20653;-75
2020/12/27 04:06:11;;;;;;;1.17;1.07;;;;;;;-144.99;92.12;52505.16;5131355;27;20664;-76
2020/12/27 04:08:38;;;;;;;1.57;1.10;;;;;;;-144.99;91.62;52521.47;5126548;27;20621;-76
2020/12/27 04:11:04;;;;;;;5.87;1.70;;;;;;;-144.99;91.84;52525.56;5111388;28;20843;-75
2020/12/27 04:13:30;;;;;;;3.07;1.50;;;;;;;-144.99;91.74;52494.97;5112146;27;20755;-76
2020/12/27 04:15:56;;;;;;;1.07;0.90;;;;;;;-144.99;91.18;52501.09;5110924;27;21193;-73
2020/12/27 04:18:23;;;;;;;2.13;1.30;;;;;;;-144.99;91.14;52513.31;5111227;28;20656;-74
2020/12/27 04:20:49;;;;;;;1.60;1.03;;;;;;;-144.99;91.11;52515.34;5112149;28;20720;-74
2020/12/27 04:23:15;;;;;;;1.63;0.90;;;;;;;-144.99;91.25;52507.19;5111162;28;20743;-74
2020/12/27 04:25:42;;;;;;;2.40;1.20;;;;;;;-144.99;91.37;52517.41;5111622;28;20620;-74
2020/12/27 04:28:08;;;;;;;1.47;1.30;;;;;;;-144.99;90.72;52492.94;5110551;28;20636;-74
2020/12/27 04:30:34;;;;;;;1.83;1.47;;;;;;;-144.99;90.58;52527.59;5110662;28;20632;-74
2020/12/27 04:33:00;;;;;;;1.57;1.13;;;;;;;-144.99;90.58;52480.72;5110801;28;20679;-73
2020/12/27 04:35:26;;;;;;;7.17;1.63;;;;;;;-144.99;90.72;52501.09;5110448;28;20662;-74
2020/12/27 04:37:52;;;;;;;4.00;1.40;;;;;;;-144.99;90.47;52523.50;5116400;27;20616;-73
2020/12/27 04:40:18;;;;;;;4.03;1.67;;;;;;;-144.99;90.27;52525.56;5118254;27;20628;-74
2020/12/27 04:42:49;;;;;;;2.17;1.50;;;;;;;-144.99;89.92;52492.94;5114833;27;20682;-75
2020/12/27 04:45:16;;;;;;;2.23;1.40;;;;;;;-144.99;89.62;52533.69;5110764;28;21130;-73
2020/12/27 04:47:42;;;;;;;2.57;1.53;;;;;;;-144.99;89.35;52525.56;5110955;28;20667;-75
2020/12/27 04:50:09;;;;;;;2.17;1.27;;;;;;;-144.99;89.22;52521.47;5110729;28;20732;-76
2020/12/27 04:52:35;;;;;;;2.43;1.40;;;;;;;-144.99;88.92;52545.94;5110925;28;20742;-74
2020/12/27 04:55:01;;;;;;;2.17;1.30;;;;;;;-144.99;88.94;52525.56;5110397;28;21191;-73
2020/12/27 04:57:28;;;;;;;3.07;1.70;;;;;;;-144.99;88.16;52505.16;5110699;28;20621;-74
2020/12/27 04:59:56;;;;;;;1.93;1.07;;;;;;;-144.99;88.39;52497.00;5110295;28;20668;-74
2020/12/27 05:02:23;;;;;;;4.47;1.70;;;;;;;-144.99;87.92;52558.16;5112267;28;20659;-73
2020/12/27 05:04:49;;;;;;;1.80;1.40;;;;;;;-144.99;88.09;52472.56;5120429;27;20612;-74
2020/12/27 05:07:20;;;;;;;1.33;0.90;;;;;;;-144.99;88.04;52511.28;5126570;27;20621;-73
2020/12/27 05:09:49;;;;;;;4.07;2.07;;;;;;;-144.99;87.77;52517.41;5111273;28;20648;-74
2020/12/27 05:12:16;;;;;;;1.70;1.33;;;;;;;-144.99;87.56;52501.09;5111838;27;21082;-77
2020/12/27 05:14:42;;;;;;;4.63;1.80;;;;;;;-144.99;87.39;52525.56;5110492;28;20688;-75
2020/12/27 05:17:13;;;;;;;4.73;1.73;;;;;;;-144.99;87.47;52517.41;5110674;28;20652;-74
2020/12/27 05:19:39;;;;;;;3.47;2.87;;;;;;;-144.99;87.92;52533.69;5110067;28;20672;-75
2020/12/27 05:22:09;;;;;;;2.77;1.60;;;;;;;-144.99;87.87;52554.09;5111235;28;20673;-73
2020/12/27 05:24:37;;;;;;;3.00;2.57;;;;;;;-144.99;87.23;52509.25;5114973;28;20678;-75
2020/12/27 05:27:06;;;;;;;2.23;1.57;;;;;;;-144.99;87.14;52543.91;5114987;28;20720;-75
2020/12/27 05:29:33;;;;;;;2.93;1.93;;;;;;;-144.99;86.95;52513.31;5113012;28;21208;-75
2020/12/27 05:32:00;;;;;;;2.97;1.60;;;;;;;-144.99;86.94;52509.25;5110202;28;20653;-75
2020/12/27 05:34:29;;;;;;;3.00;2.13;;;;;;;-144.99;87.21;52537.78;5109796;28;20647;-74
2020/12/27 05:37:00;;;;;;;4.83;2.10;;;;;;;-144.99;86.73;52497.00;5110515;28;21250;-74
2020/12/27 05:39:27;;;;;;;2.40;1.40;;;;;;;-144.99;86.90;52505.16;5109521;28;20674;-74
2020/12/27 05:41:59;;;;;;;3.13;1.60;;;;;;;-144.99;86.86;52497.00;5119901;27;20690;-74
2020/12/27 05:44:25;;;;;;;20.00;2.43;;;;;;;-144.99;86.99;52505.16;5113193;27;21042;-73
2020/12/27 05:46:52;;;;;;;2.40;1.60;;;;;;;-144.99;86.77;52509.25;5110179;28;20620;-74
2020/12/27 05:49:19;;;;;;;5.07;2.23;;;;;;;-144.99;86.83;52517.41;5109621;28;21174;-74
2020/12/27 05:51:52;;;;;;;3.30;1.90;;;;;;;-144.99;86.75;52519.44;5110498;28;20697;-74
2020/12/27 05:54:33;;;;;;;6.70;2.33;;;;;;;-144.99;86.72;52541.84;5110766;28;20653;-74
2020/12/27 05:57:00;;;;;;;2.97;2.17;;;;;;;-144.99;86.69;52533.69;5110695;28;21024;-77
2020/12/27 05:59:29;;;;;;;3.33;1.90;;;;;;;-144.99;86.45;52527.59;5110290;28;20668;-74
2020/12/27 06:01:57;;;;;;;4.27;2.57;;;;;;;-144.99;86.63;52543.91;5110366;28;20663;-74
2020/12/27 06:05:10;;;;;;;2.93;1.77;;;;;;;-144.99;86.73;52570.38;5115462;28;20612;-76
2020/12/27 06:07:39;;;;;;;3.70;1.43;;;;;;;-144.99;86.58;52501.09;5089266;27;20744;-75
2020/12/27 06:10:14;;;;;;;2.23;1.60;;;;;;;-144.99;86.49;52517.41;5110115;28;20660;-75
2020/12/27 06:13:29;;;;;;;4.73;1.47;;;;;;;-144.99;86.41;52533.69;5110611;28;20691;-74
2020/12/27 06:15:57;;;;;;;3.53;2.27;;;;;;;-144.99;86.58;52550.00;5119266;28;21032;-75
2020/12/27 06:18:27;;;;;;;1.67;1.30;;;;;;;-144.99;86.26;52533.69;5132521;28;20654;-76
2020/12/27 06:21:06;;;;;;;3.23;2.00;;;;;;;-144.99;86.79;52501.09;5130992;28;20914;-75
2020/12/27 06:23:34;;;;;;;4.77;2.10;;;;;;;-144.99;86.57;52505.16;5130759;27;20659;-74
2020/12/27 06:26:02;;;;;;;4.13;1.80;;;;;;;-144.99;86.01;52509.25;5130413;28;21240;-76
2020/12/27 06:28:29;;;;;;;3.53;1.80;;;;;;;-144.99;86.05;52529.63;5133757;27;20831;-76
2020/12/27 06:30:57;;;;;;;4.10;2.63;;;;;;;-144.99;85.82;52513.31;5134717;27;20664;-75
2020/12/27 06:33:27;;;;;;;1.83;1.43;;;;;;;-144.99;85.87;52531.66;5133841;27;21115;-75
2020/12/27 06:35:53;;;;;;;4.50;1.47;;;;;;;-144.99;85.88;52537.78;5134605;27;21235;-76
2020/12/27 06:38:20;;;;;;;4.13;2.30;;;;;;;-144.99;85.69;52501.09;5127143;27;20773;-76
2020/12/27 06:40:52;;;;;;;2.37;1.80;;;;;;;-144.99;85.91;52509.25;5124510;27;20676;-75
2020/12/27 06:43:20;;;;;;;2.77;1.60;;;;;;;-144.99;85.95;52505.16;5113706;28;20725;-76
2020/12/27 06:45:47;;;;;;;2.93;1.80;;;;;;;-144.99;85.94;52525.56;5115695;27;20652;-75
2020/12/27 06:48:32;;;;;;;3.10;1.80;;;;;;;-144.99;85.56;52543.91;5124268;27;20633;-76
2020/12/27 06:50:58;;;;;;;3.07;2.30;;;;;;;-144.99;85.45;52492.94;5112927;27;21240;-76
2020/12/27 06:53:38;;;;;;;7.00;2.57;;;;;;;-144.99;85.64;52541.84;5113770;28;21314;-75
2020/12/27 06:56:05;;;;;;;2.93;1.80;;;;;;;-144.99;85.74;52537.78;5122236;27;20718;-76
2020/12/27 06:58:31;;;;;;;2.77;1.47;;;;;;;-144.99;85.77;52533.69;5134079;27;20671;-75
2020/12/27 07:01:12;;;;;;;5.03;2.23;;;;;;;-144.99;85.44;52492.94;5134443;27;21233;-76
2020/12/27 07:03:38;;;;;;;3.27;2.23;;;;;;;-144.99;85.52;52488.84;5133488;27;20667;-76
2020/12/27 07:06:24;;;;;;;2.73;1.67;;;;;;;-144.99;85.73;52513.31;5134252;27;20675;-74
2020/12/27 07:08:55;;;;;;;4.43;1.37;;;;;;;-144.99;85.42;52480.72;5116880;27;20728;-74
2020/12/27 07:11:25;;;;;;;3.70;1.77;;;;;;;-144.99;85.17;52519.44;5113033;28;21185;-74
2020/12/27 07:13:54;;;;;;;2.10;1.70;;;;;;;-144.99;85.32;52539.81;5114250;27;20697;-76
2020/12/27 07:16:21;;;;;;;2.50;1.60;;;;;;;-144.99;85.19;52519.44;5112744;28;20876;-76
2020/12/27 07:18:48;;;;;;;3.43;1.83;;;;;;;-144.99;84.87;52554.09;5121157;28;20625;-76
2020/12/27 07:21:17;;;;;;;2.53;1.83;;;;;;;-144.99;85.15;52525.56;5118324;28;20609;-73
2020/12/27 07:24:09;;;;;;;2.10;1.50;;;;;;;-144.99;85.03;52499.06;5112530;28;20694;-74
2020/12/27 07:26:38;;;;;;;3.03;1.33;;;;;;;-144.99;84.81;52525.56;5112244;28;20664;-72
2020/12/27 07:29:07;;;;;;;3.13;1.63;;;;;;;-144.99;84.97;52488.84;5112332;28;20708;-72
2020/12/27 07:31:34;;;;;;;2.43;1.77;;;;;;;-144.99;84.66;52484.78;5112881;28;21255;-73
2020/12/27 07:34:00;;;;;;;2.20;1.77;;;;;;;-144.99;84.78;52523.50;5112699;28;20757;-72
2020/12/27 07:36:27;;;;;;;2.50;1.60;;;;;;;-144.99;85.03;52533.69;5112147;28;21249;-73
2020/12/27 07:39:01;;;;;;;2.73;1.80;;;;;;;-144.99;86.26;52566.31;5117132;27;21088;-73
2020/12/27 07:41:29;;;;;;;2.27;1.53;;;;;;;-144.99;86.37;52513.31;5124010;27;21181;-73
2020/12/27 07:43:57;;;;;;;4.27;1.60;;;;;;;-144.99;86.36;52513.31;5115677;28;20653;-70
2020/12/27 07:46:25;;;;;;;2.83;1.47;;;;;;;-144.99;86.74;52505.16;5111749;28;20648;-73
2020/12/27 07:48:51;;;;;;;2.80;1.53;;;;;;;-144.99;86.53;52521.47;5111602;28;20644;-72
2020/12/27 07:51:19;;;;;;;1.67;1.30;;;;;;;-144.99;87.59;52527.59;5112333;28;20708;-73
2020/12/27 07:53:47;;;;;;;2.77;2.17;;;;;;;-144.99;87.83;52497.00;5111768;28;21251;-73
2020/12/27 07:56:21;;;;;;;2.47;1.43;;;;;;;-144.99;89.13;52550.00;5114031;28;20671;-73
2020/12/27 07:58:51;;;;;;;2.20;1.33;;;;;;;-144.99;89.63;52521.47;5119797;28;20648;-72
2020/12/27 08:01:20;;;;;;;2.40;1.70;;;;;;;-144.99;90.19;52537.78;5124314;28;20601;-74
2020/12/27 08:03:51;;;;;;;3.23;1.57;;;;;;;-144.99;91.49;52513.31;5139733;27;20656;-76
2020/12/27 08:06:17;;;;;;;3.23;2.50;;;;;;;-144.99;91.99;52517.41;5143318;27;20715;-73
2020/12/27 08:08:44;;;;;;;2.90;1.40;;;;;;;-144.99;90.51;52537.78;5130605;27;20620;-75
2020/12/27 08:11:18;;;;;;;1.57;1.40;;;;;;;-144.99;90.77;52525.56;5120009;28;20664;-75
2020/12/27 08:13:50;;;;;;;2.80;1.37;;;;;;;-144.99;91.18;52545.94;5113079;27;20664;-75
2020/12/27 08:16:16;;;;;;;4.00;1.60;;;;;;;-144.99;89.93;52533.69;5112274;28;20728;-75
2020/12/27 08:18:43;;;;;;;2.23;1.50;;;;;;;-144.99;89.86;52521.47;5111729;28;20640;-75
2020/12/27 08:21:09;;;;;;;2.23;1.10;;;;;;;-144.99;89.42;52533.69;5111953;28;20716;-74
2020/12/27 08:23:35;;;;;;;5.47;1.90;;;;;;;-144.99;90.77;52521.47;5111314;28;20688;-73
2020/12/27 08:26:02;;;;;;;2.93;1.60;;;;;;;-144.99;92.35;52550.00;5110723;28;20661;-74
2020/12/27 08:28:28;;;;;;;2.10;1.70;;;;;;;-144.99;91.63;52531.66;5111208;28;21217;-74
2020/12/27 08:30:54;;;;;;;2.60;1.57;;;;;;;-144.99;91.26;52558.16;5111566;28;20716;-75
2020/12/27 08:33:21;;;;;;;1.73;1.00;;;;;;;-144.99;91.11;52545.94;5110688;28;20704;-74
2020/12/27 08:35:50;;;;;;;3.77;1.40;;;;;;;-144.99;92.01;52509.25;5111435;28;20682;-75
2020/12/27 08:38:31;;;;;;;1.63;1.03;;;;;;;-144.99;93.21;52525.56;5128327;22;20718;-76
2020/12/27 08:41:19;;;;;;;9.23;2.10;;;;;;;-144.99;92.96;52550.00;5072664;28;20658;-76
2020/12/27 08:44:20;;;;;;;2.27;1.40;;;;;;;-144.99;94.36;52519.44;5073201;28;20638;-75
2020/12/27 08:46:51;;;;;;;1.37;1.27;;;;;;;-144.99;94.58;52513.31;5031087;28;20635;-75
2020/12/27 08:49:28;;;;;;;2.07;1.20;;;;;;;-144.99;94.86;52492.94;5068023;28;20663;-76
2020/12/27 08:52:06;;;;;;;1.43;0.93;;;;;;;-144.99;93.92;52497.00;5064202;28;20701;-75
2020/12/27 08:54:34;;;;;;;1.90;1.20;;;;;;;-144.99;93.26;52533.69;5051124;28;20640;-75
2020/12/27 08:57:03;;;;;;;2.87;1.50;;;;;;;-144.99;93.37;52525.56;5051657;28;21220;-75
2020/12/27 08:59:30;;;;;;;2.87;1.57;;;;;;;-144.99;93.85;52480.72;5051311;28;20643;-75
2020/12/27 09:01:56;;;;;;;1.80;1.13;;;;;;;-144.99;93.55;52497.00;5051314;28;20782;-75
2020/12/27 09:04:22;;;;;;;1.50;1.10;;;;;;;-144.99;93.59;52517.41;5050853;28;20628;-75
2020/12/27 09:06:53;;;;;;;4.77;1.23;;;;;;;-144.99;92.66;52529.63;5051395;28;21328;-74
2020/12/27 09:09:21;;;;;;;2.63;1.33;;;;;;;-144.99;93.79;52497.00;5038999;28;21066;-74
2020/12/27 09:11:47;;;;;;;3.03;1.33;;;;;;;-144.99;93.75;52505.16;5051283;28;20627;-76
2020/12/27 09:14:32;;;;;;;4.23;1.13;;;;;;;-144.99;94.13;52513.31;5050877;28;20751;-74
2020/12/27 09:17:02;;;;;;;1.87;1.23;;;;;;;-144.99;93.32;52533.69;5051776;28;20624;-75
2020/12/27 09:19:28;;;;;;;2.63;1.47;;;;;;;-144.99;92.95;52513.31;5051587;28;20644;-76
2020/12/27 09:21:55;;;;;;;3.17;2.00;;;;;;;-144.99;93.86;52513.31;5051913;28;20719;-74
2020/12/27 09:24:22;;;;;;;2.30;1.77;;;;;;;-144.99;92.57;52537.78;5051524;28;20616;-76
2020/12/27 09:26:48;;;;;;;2.67;1.67;;;;;;;-144.99;92.38;52529.63;5051272;28;21274;-76
2020/12/27 09:29:16;;;;;;;2.17;1.40;;;;;;;-144.99;91.88;52525.56;5061275;28;20655;-75
2020/12/27 09:31:43;;;;;;;9.93;2.00;;;;;;;-144.99;91.53;52513.31;5067912;28;20649;-75
2020/12/27 09:34:09;;;;;;;2.80;1.87;;;;;;;-144.99;90.95;52521.47;5051418;28;21267;-73
2020/12/27 09:36:36;;;;;;;2.60;1.30;;;;;;;-144.99;90.71;52497.00;5051930;28;20620;-75
2020/12/27 09:39:04;;;;;;;2.17;1.07;;;;;;;-144.99;90.44;52509.25;5051281;28;20667;-75
2020/12/27 09:41:37;;;;;;;2.93;1.30;;;;;;;-144.99;90.02;52550.00;5052711;28;20693;-75
2020/12/27 09:44:04;;;;;;;1.90;1.17;;;;;;;-144.99;89.65;52509.25;5053021;28;20624;-74
2020/12/27 09:46:41;;;;;;;4.63;1.37;;;;;;;-144.99;89.45;52513.31;5053147;28;20644;-76
2020/12/27 09:49:22;;;;;;;2.63;1.63;;;;;;;-144.99;90.06;52521.47;5052650;28;20700;-75
2020/12/27 09:52:04;;;;;;;1.33;1.07;;;;;;;-144.99;89.62;52517.41;5051988;28;21231;-75
2020/12/27 09:54:31;;;;;;;2.13;1.30;;;;;;;-144.99;89.00;52511.28;5052800;28;20755;-75
2020/12/27 09:56:59;;;;;;;2.60;1.73;;;;;;;-144.99;88.63;52517.41;5052020;28;20631;-72
2020/12/27 09:59:25;;;;;;;6.50;2.23;;;;;;;-144.99;88.09;52501.09;5051456;28;20660;-74
2020/12/27 10:01:51;;;;;;;2.80;2.23;;;;;;;-144.99;87.63;52521.47;5054469;28;20659;-75
2020/12/27 10:04:17;;;;;;;2.47;1.73;;;;;;;-144.99;87.97;52529.63;5057418;28;20619;-74
2020/12/27 10:06:44;;;;;;;3.37;1.70;;;;;;;-144.99;87.63;52497.00;5058487;28;20604;-74
2020/12/27 10:09:10;;;;;;;3.43;1.23;;;;;;;-144.99;87.14;52509.25;5061219;28;20743;-75
2020/12/27 10:11:36;;;;;;;2.40;1.43;;;;;;;-144.99;86.92;52562.25;5069702;28;21220;-75
2020/12/27 10:14:03;;;;;;;2.73;1.40;;;;;;;-144.99;86.44;52509.25;5057925;28;20655;-73
2020/12/27 10:16:29;;;;;;;2.23;1.07;;;;;;;-144.99;86.44;52517.41;5057283;28;20627;-75
2020/12/27 10:18:55;;;;;;;3.10;1.30;;;;;;;-144.99;85.79;52556.13;5055790;28;20672;-75
2020/12/27 10:21:21;;;;;;;2.30;1.20;;;;;;;-144.99;85.62;52480.72;5057661;28;20630;-76
2020/12/27 10:23:48;;;;;;;2.67;1.53;;;;;;;-144.99;85.59;52482.75;5058614;28;20632;-73
2020/12/27 10:26:14;;;;;;;2.03;1.43;;;;;;;-144.99;85.33;52509.25;5058882;28;20623;-74
2020/12/27 10:28:40;;;;;;;2.03;1.20;;;;;;;-144.99;84.64;52468.47;5045270;28;20643;-74
2020/12/27 10:31:10;;;;;;;1.80;1.30;;;;;;;-144.99;84.31;52497.00;5058833;28;20643;-75
2020/12/27 10:33:37;;;;;;;2.73;1.80;;;;;;;-144.99;84.19;52501.09;5060763;28;20644;-76
2020/12/27 10:36:04;;;;;;;3.50;3.23;;;;;;;-144.99;83.52;52517.41;5063388;28;20631;-76
2020/12/27 10:38:30;;;;;;;1.70;1.27;;;;;;;-144.99;83.62;52541.84;5062445;28;20690;-75
2020/12/27 10:40:56;;;;;;;4.13;2.73;;;;;;;-144.99;83.84;52499.06;5063908;28;20655;-74
2020/12/27 10:43:22;;;;;;;3.13;1.73;;;;;;;-144.99;83.45;52515.34;5063625;28;20607;-74
2020/12/27 10:45:49;;;;;;;3.40;1.83;;;;;;;-144.99;83.52;52509.25;5064287;28;21337;-74
2020/12/27 10:48:16;;;;;;;2.33;1.33;;;;;;;-144.99;83.05;52525.56;5063832;28;20656;-74
2020/12/27 10:50:42;;;;;;;1.97;1.30;;;;;;;-144.99;82.50;52501.09;5063032;28;21167;-74
2020/12/27 10:53:11;;;;;;;2.87;1.50;;;;;;;-144.99;82.99;52476.63;5062255;28;20797;-74
2020/12/27 10:55:37;;;;;;;2.83;1.40;;;;;;;-144.99;82.15;52529.63;5062305;28;20650;-74
2020/12/27 10:58:03;;;;;;;2.20;1.17;;;;;;;-144.99;82.42;52494.97;5062571;28;20980;-75
2020/12/27 11:00:29;;;;;;;1.90;1.23;;;;;;;-144.99;82.60;52486.81;5061816;28;20612;-75
2020/12/27 11:02:55;;;;;;;3.30;1.20;;;;;;;-144.99;82.34;52533.69;5061801;28;20616;-74
2020/12/27 11:05:22;;;;;;;1.30;0.97;;;;;;;-144.99;82.25;52505.16;5061165;28;20620;-75
2020/12/27 11:07:49;;;;;;;3.63;1.10;;;;;;;-144.99;83.01;52509.25;5054864;28;20663;-74
2020/12/27 11:10:15;;;;;;;6.93;1.63;;;;;;;-144.99;81.97;52509.25;5060877;28;20674;-75
2020/12/27 11:12:41;;;;;;;2.13;1.20;;;;;;;-144.99;81.86;52492.94;5063439;28;21179;-74
2020/12/27 11:15:08;;;;;;;2.90;1.30;;;;;;;-144.99;82.46;52497.00;5063117;28;21228;-75
2020/12/27 11:17:34;;;;;;;4.20;2.00;;;;;;;-144.99;82.50;52537.78;5060143;28;21221;-73
2020/12/27 11:20:01;;;;;;;1.30;0.83;;;;;;;-144.99;82.27;52492.94;5064084;28;20616;-76